Wednesday, November 22, 2017, 7:54 AM EST
Back to Local

KSFM, Sanford, Sanford Regional Airport

Location: Sanford, ME, United States Lat: 43.4
Local Time: 7:54 AM EST (12:54 GMT) Lon: -70.717
Time Zone: US/Eastern Elev: 242 ft

Show me the last for .
Show Decoded

2017-11-22 06:56 METAR KSFM 221156Z AUTO 00000KT 10SM 01/00 A2996 RMK AO2 SLP150 T00060000 10039
                 21017 58008 FZRANO $ =
2017-11-22 05:56 METAR KSFM 221056Z AUTO 35003KT 10SM 00/M01 A2997 RMK AO2 SLP154 T00001006
                 FZRANO $ =
2017-11-22 04:56 METAR KSFM 220956Z AUTO 00000KT 10SM M01/M02 A2998 RMK AO2 SLP157 T10111017
                 FZRANO $ =
2017-11-22 03:56 METAR KSFM 220856Z AUTO 00000KT 10SM M01/M02 A2998 RMK AO2 SLP158 T10111017
                 58001 FZRANO $ =
2017-11-22 02:56 METAR KSFM 220756Z AUTO 00000KT 10SM M01/M02 A2998 RMK AO2 SLP157 T10111017
                 FZRANO $ =
2017-11-22 01:56 METAR KSFM 220656Z AUTO 00000KT 10SM M01/M02 A2999 RMK AO2 SLP160 T10061017
                 FZRANO $ =
2017-11-22 00:56 METAR KSFM 220556Z AUTO 20003KT 10SM 04/01 A2999 RMK AO2 SLP159 T00390006 10094
                 20039 50004 $ =
2017-11-21 23:56 METAR KSFM 220456Z AUTO 22005KT 10SM 06/01 A2999 RMK AO2 SLP161 T00560011 $ =
2017-11-21 22:56 METAR KSFM 220356Z AUTO 20005KT 10SM 07/02 A2998 RMK AO2 SLP157 T00670017
                 401391056 $ =
2017-11-21 21:56 METAR KSFM 220256Z AUTO 21005KT 10SM 08/02 A2998 RMK AO2 SLP155 T00780017 50007
                 $ =
2017-11-21 20:56 METAR KSFM 220156Z AUTO 21007KT 170V250 10SM 08/02 A2998 RMK AO2 SLP156
                 T00830017 $ =
2017-11-21 19:56 METAR KSFM 220056Z AUTO VRB06KT 10SM 09/01 A2997 RMK AO2 SLP155 T00890011 $ =
2017-11-21 18:56 METAR KSFM 212356Z AUTO 21006KT 10SM 09/01 A2996 RMK AO2 SLP149 T00940006 10139
                 20094 53009 $ =
2017-11-21 17:56 METAR KSFM 212256Z AUTO 21008KT 10SM 11/M01 A2994 RMK AO2 SLP144 T01061006 $ =
2017-11-21 16:56 METAR KSFM 212156Z AUTO 21005KT 10SM 12/M02 A2994 RMK AO2 SLP143 T01171017 $ =
2017-11-21 15:56 METAR KSFM 212056Z AUTO 21003KT 10SM 13/M02 A2993 RMK AO2 SLP139 T01281022 56011
                 $ =
2017-11-21 14:56 METAR KSFM 211956Z AUTO 21009G14KT 10SM 14/M03 A2993 RMK AO2 SLP139 T01391028 $
                 =
2017-11-21 13:56 METAR KSFM 211856Z AUTO 19007KT 10SM 13/M02 A2993 RMK AO2 SLP141 T01331022 $ =
2017-11-21 12:56 METAR KSFM 211756Z AUTO 22010G17KT 10SM 11/M03 A2996 RMK AO2 SLP151 T01111028
                 10111 21028 58034 $ =
2017-11-21 11:56 METAR KSFM 211656Z AUTO 22010G17KT 10SM 08/M03 A3000 RMK AO2 SLP164 T00831033 $
                 =
2017-11-21 10:56 METAR KSFM 211556Z AUTO 22006KT 10SM 06/M03 A3004 RMK AO2 SLP176 T00611028 $ =
2017-11-21 09:56 METAR KSFM 211456Z AUTO 23006KT 10SM 04/M03 A3006 RMK AO2 SLP185 T00441028 58005
                 TSNO $ =
2017-11-21 08:56 METAR KSFM 211356Z AUTO 21009KT 10SM 03/M03 A3007 RMK AO2 SLP188 T00281028 $ =
2017-11-21 07:56 METAR KSFM 211256Z AUTO 20004KT 10SM 02/M02 A3007 RMK AO2 SLP189 T00171017
                 FZRANO $ =

Support USWX by starting your Amazon purchase here.